createdAt,value
2019-01-14T00:05:12.928Z,1.70
2019-01-14T00:08:14.392Z,2.10
2019-01-14T00:13:59.201Z,1.80
2019-01-14T00:19:44.870Z,1.83
2019-01-14T00:25:30.639Z,1.90
2019-01-14T00:28:32.100Z,1.67
2019-01-14T00:34:17.883Z,2.50
2019-01-14T00:40:03.855Z,2.23
2019-01-14T00:45:50.283Z,2.67
2019-01-14T00:48:51.562Z,2.67
2019-01-14T00:54:36.477Z,3.43
2019-01-14T01:00:21.669Z,2.57
2019-01-14T01:06:08.282Z,2.43
2019-01-14T01:09:09.600Z,2.73
2019-01-14T01:14:55.287Z,2.73
2019-01-14T01:20:41.190Z,3.07
2019-01-14T01:26:27.300Z,2.63
2019-01-14T01:29:28.802Z,2.70
2019-01-14T01:35:15.366Z,3.13
2019-01-14T01:41:02.254Z,2.93
2019-01-14T01:46:47.073Z,2.97
2019-01-14T01:49:48.535Z,2.93
2019-01-14T01:55:34.243Z,3.00
2019-01-14T02:01:20.829Z,3.35
2019-01-14T02:04:23.441Z,3.20
2019-01-14T02:07:24.985Z,2.50
2019-01-14T02:10:25.672Z,3.07
2019-01-14T02:16:11.655Z,2.70
2019-01-14T02:21:56.965Z,3.03
2019-01-14T02:24:58.274Z,2.80
2019-01-14T02:31:36.915Z,2.30
2019-01-14T02:37:24.594Z,3.17
2019-01-14T02:40:26.012Z,2.63
2019-01-14T02:46:11.626Z,2.50
2019-01-14T02:51:58.254Z,3.03
2019-01-14T02:54:59.791Z,3.00
2019-01-14T02:58:01.538Z,2.80
2019-01-14T03:01:02.891Z,2.87
2019-01-14T03:06:57.425Z,3.07
2019-01-14T03:12:37.155Z,2.77
2019-01-14T03:18:23.586Z,2.77
2019-01-14T03:21:25.183Z,3.70
2019-01-14T03:27:10.849Z,3.20
2019-01-14T03:32:55.320Z,3.20
2019-01-14T03:38:41.631Z,3.70
2019-01-14T03:41:42.779Z,2.87
2019-01-14T03:47:28.613Z,2.63
2019-01-14T03:56:19.190Z,3.37
2019-01-14T03:59:20.419Z,2.83
2019-01-14T04:02:21.111Z,3.07
2019-01-14T04:08:06.002Z,3.40
2019-01-14T04:13:51.316Z,3.03
2019-01-14T04:16:52.630Z,2.83
2019-01-14T04:22:38.338Z,3.43
2019-01-14T04:28:24.943Z,3.40
2019-01-14T04:34:11.140Z,3.07
2019-01-14T04:37:12.559Z,3.00
2019-01-14T04:42:58.287Z,3.27
2019-01-14T04:48:43.002Z,2.90
2019-01-14T04:54:28.780Z,2.30
2019-01-14T04:57:29.443Z,2.83
2019-01-14T05:03:15.123Z,3.10
2019-01-14T05:09:00.858Z,2.40
2019-01-14T05:14:47.530Z,2.47
2019-01-14T05:17:49.053Z,3.40
2019-01-14T05:23:35.554Z,2.47
2019-01-14T05:29:21.234Z,2.63
2019-01-14T05:35:07.762Z,3.00
2019-01-14T05:38:09.177Z,3.17
2019-01-14T05:43:55.359Z,3.40
2019-01-14T05:49:41.506Z,3.20
2019-01-14T05:52:43.998Z,2.73
2019-01-14T05:55:45.562Z,3.10
2019-01-14T05:58:46.225Z,2.53
2019-01-14T06:04:31.713Z,2.60
2019-01-14T06:10:17.202Z,2.70
2019-01-14T06:16:03.725Z,2.80
2019-01-14T06:19:05.226Z,2.77
2019-01-14T06:24:50.923Z,3.33
2019-01-14T06:30:36.027Z,2.83
2019-01-14T06:36:22.680Z,2.57
2019-01-14T06:39:23.901Z,2.00
2019-01-14T06:45:10.499Z,2.20
2019-01-14T06:50:56.787Z,2.50
2019-01-14T06:56:41.346Z,3.00
2019-01-14T06:59:42.907Z,2.33
2019-01-14T07:05:28.828Z,2.40
2019-01-14T07:11:14.507Z,2.17
2019-01-14T07:17:00.099Z,2.37
2019-01-14T07:20:01.818Z,2.50
2019-01-14T07:25:46.604Z,2.50
2019-01-14T07:31:32.855Z,2.47
2019-01-14T07:37:18.326Z,1.93
2019-01-14T07:40:19.815Z,1.93
2019-01-14T07:46:04.795Z,2.03
2019-01-14T07:51:49.546Z,1.90
2019-01-14T07:57:36.405Z,1.80
2019-01-14T08:00:37.203Z,2.60
2019-01-14T08:06:22.903Z,1.57
2019-01-14T08:12:09.582Z,1.27
2019-01-14T08:17:54.542Z,0.97
2019-01-14T08:23:40.465Z,1.00
2019-01-14T08:29:26.723Z,1.13
2019-01-14T08:35:13.065Z,1.20
2019-01-14T08:38:21.033Z,1.13
2019-01-14T08:44:01.726Z,0.80
2019-01-14T08:49:47.554Z,1.17
2019-01-14T08:55:33.290Z,1.57
2019-01-14T09:01:19.770Z,2.70
2019-01-14T09:07:04.961Z,1.40
2019-01-14T09:10:06.419Z,0.90
2019-01-14T09:15:51.986Z,1.20
2019-01-14T09:21:38.557Z,1.20
2019-01-14T09:27:25.242Z,2.33
2019-01-14T09:33:11.458Z,1.70
2019-01-14T09:38:57.408Z,1.17
2019-01-14T09:44:43.202Z,1.10
2019-01-14T09:47:44.091Z,2.50
2019-01-14T09:50:46.575Z,1.80
2019-01-14T09:53:48.219Z,1.37
2019-01-14T09:59:33.066Z,1.63
2019-01-14T10:02:34.635Z,1.20
2019-01-14T10:05:36.053Z,1.77
2019-01-14T10:08:43.094Z,1.40
2019-01-14T10:14:23.771Z,1.60
2019-01-14T10:20:10.428Z,1.20
2019-01-14T10:23:11.762Z,1.20
2019-01-14T10:28:57.693Z,1.53
2019-01-14T10:34:42.894Z,1.87
2019-01-14T10:40:28.754Z,1.57
2019-01-14T10:43:29.981Z,1.23
2019-01-14T10:49:16.206Z,1.20
2019-01-14T10:55:02.876Z,1.20
2019-01-14T11:00:48.859Z,1.70
2019-01-14T11:03:50.438Z,1.37
2019-01-14T11:09:36.253Z,1.50
2019-01-14T11:15:22.115Z,1.27
2019-01-14T11:21:07.567Z,1.07
2019-01-14T11:24:13.991Z,1.00
2019-01-14T11:29:58.886Z,1.70
2019-01-14T11:35:45.602Z,1.70
2019-01-14T11:41:57.255Z,1.53
2019-01-14T11:44:58.837Z,2.57
2019-01-14T11:50:47.927Z,1.80
2019-01-14T11:53:49.069Z,1.63
2019-01-14T11:56:49.588Z,1.63
2019-01-14T11:59:49.871Z,1.20
2019-01-14T12:05:35.564Z,1.60
2019-01-14T12:11:21.522Z,1.40
2019-01-14T12:17:06.567Z,1.60
2019-01-14T12:20:07.638Z,1.53
2019-01-14T12:25:52.299Z,1.20
2019-01-14T12:31:37.210Z,1.70
2019-01-14T12:37:25.747Z,1.57
2019-01-14T12:40:27.038Z,0.90
2019-01-14T12:43:29.593Z,1.60
2019-01-14T12:46:31.263Z,1.17
2019-01-14T12:52:16.682Z,1.50
2019-01-14T12:58:10.253Z,1.40
2019-01-14T13:01:11.111Z,1.40
2019-01-14T13:06:55.775Z,1.60
2019-01-14T13:12:42.172Z,1.10
2019-01-14T13:18:27.606Z,1.37
2019-01-14T13:21:28.515Z,1.60
2019-01-14T13:27:13.238Z,1.53
2019-01-14T13:32:59.550Z,1.50
2019-01-14T13:36:01.619Z,1.40
2019-01-14T13:39:02.462Z,1.33
2019-01-14T13:42:03.715Z,1.10
2019-01-14T13:47:49.514Z,1.57
2019-01-14T13:56:40.510Z,1.10
2019-01-14T14:05:50.741Z,1.10
2019-01-14T14:08:51.917Z,1.00
2019-01-14T14:11:52.616Z,1.03
2019-01-14T14:17:37.451Z,0.93
2019-01-14T14:23:24.358Z,1.03
2019-01-14T14:26:25.457Z,1.67
2019-01-14T14:29:27.032Z,0.93
2019-01-14T14:32:28.394Z,1.40
2019-01-14T14:38:14.871Z,1.13
2019-01-14T14:44:00.234Z,1.47
2019-01-14T14:49:45.897Z,1.30
2019-01-14T14:52:47.124Z,1.20
2019-01-14T14:58:34.669Z,1.00
2019-01-14T15:04:19.398Z,1.27
2019-01-14T15:10:05.443Z,1.27
2019-01-14T15:13:06.194Z,1.20
2019-01-14T15:18:52.582Z,1.33
2019-01-14T15:24:38.580Z,1.37
2019-01-14T15:30:23.350Z,1.57
2019-01-14T15:33:24.667Z,1.20
2019-01-14T15:39:10.315Z,1.60
2019-01-14T15:44:55.787Z,1.93
2019-01-14T15:50:40.711Z,1.33
2019-01-14T15:53:42.206Z,0.83
2019-01-14T15:59:27.207Z,1.80
2019-01-14T16:05:12.835Z,1.50
2019-01-14T16:10:58.443Z,1.63
2019-01-14T16:16:44.938Z,1.43
2019-01-14T16:19:45.695Z,1.67
2019-01-14T16:25:30.954Z,1.50
2019-01-14T16:31:16.552Z,1.73
2019-01-14T16:37:03.196Z,1.17
2019-01-14T16:40:04.527Z,1.90
2019-01-14T16:45:49.949Z,1.90
2019-01-14T16:48:52.353Z,1.67
2019-01-14T16:51:53.643Z,2.00
2019-01-14T16:54:54.110Z,1.93
2019-01-14T17:00:40.547Z,1.80
2019-01-14T17:06:26.066Z,2.17
2019-01-14T17:12:12.598Z,2.10
2019-01-14T17:15:13.251Z,1.57
2019-01-14T17:20:58.983Z,1.60
2019-01-14T17:26:44.411Z,1.57
2019-01-14T17:32:30.806Z,1.57
2019-01-14T17:35:32.389Z,1.73
2019-01-14T17:41:17.184Z,2.30
2019-01-14T17:47:02.682Z,1.97
2019-01-14T17:52:48.694Z,1.77
2019-01-14T17:55:49.854Z,1.87
2019-01-14T18:01:35.589Z,2.10
2019-01-14T18:07:21.251Z,2.13
2019-01-14T18:13:09.824Z,2.23
2019-01-14T18:16:11.233Z,3.97
2019-01-14T18:21:56.983Z,2.17
2019-01-14T18:27:42.224Z,1.73
2019-01-14T18:33:27.828Z,1.93
2019-01-14T18:39:13.474Z,2.10
2019-01-14T18:42:14.266Z,1.43
2019-01-14T18:48:00.080Z,2.23
2019-01-14T18:53:46.588Z,1.40
2019-01-14T18:59:32.322Z,1.73
2019-01-14T19:02:38.747Z,1.90
2019-01-14T19:05:38.992Z,2.07
2019-01-14T19:08:39.520Z,1.97
2019-01-14T19:14:24.932Z,2.33
2019-01-14T19:17:26.054Z,1.83
2019-01-14T19:23:24.313Z,1.60
2019-01-14T19:32:38.539Z,1.63
2019-01-14T19:38:24.290Z,1.80
2019-01-14T19:44:04.785Z,2.13
2019-01-14T19:49:50.219Z,2.00
2019-01-14T19:52:51.580Z,1.67
2019-01-14T19:58:37.402Z,1.90
2019-01-14T20:04:22.945Z,1.40
2019-01-14T20:10:29.530Z,1.73
2019-01-14T20:13:29.098Z,1.70
2019-01-14T20:20:12.264Z,2.10
2019-01-14T20:25:59.050Z,2.00
2019-01-14T20:32:03.895Z,2.30
2019-01-14T20:35:05.466Z,2.07
2019-01-14T20:40:52.011Z,1.87
2019-01-14T20:46:37.759Z,2.27
2019-01-14T20:52:23.439Z,1.53
2019-01-14T20:58:08.861Z,2.00
2019-01-14T21:03:52.691Z,1.90
2019-01-14T21:09:39.258Z,2.43
2019-01-14T21:15:24.730Z,2.07
2019-01-14T21:18:25.403Z,1.97
2019-01-14T21:24:09.958Z,2.20
2019-01-14T21:29:54.998Z,1.87
2019-01-14T21:35:40.433Z,2.10
2019-01-14T21:41:31.162Z,2.40
2019-01-14T21:44:28.894Z,1.70
2019-01-14T21:53:20.204Z,2.20
2019-01-14T21:56:20.760Z,2.70
2019-01-14T22:02:06.253Z,2.13
2019-01-14T22:05:07.439Z,2.27
2019-01-14T22:10:53.226Z,1.77
2019-01-14T22:16:39.458Z,2.77
2019-01-14T22:19:40.963Z,2.23
2019-01-14T22:22:41.892Z,2.23
2019-01-14T22:25:42.630Z,1.90
2019-01-14T22:31:28.620Z,2.13
2019-01-14T22:37:14.796Z,1.87
2019-01-14T22:43:00.380Z,1.57
2019-01-14T22:46:01.607Z,2.03
2019-01-14T22:51:47.586Z,1.93
2019-01-14T22:57:34.194Z,1.63
2019-01-14T23:03:19.713Z,2.00
2019-01-14T23:06:21.271Z,1.87
2019-01-14T23:12:06.802Z,2.77
2019-01-14T23:17:52.751Z,2.47
2019-01-14T23:23:39.981Z,2.20
2019-01-14T23:29:26.278Z,2.73
2019-01-14T23:32:27.515Z,1.73
2019-01-14T23:38:13.807Z,2.50
2019-01-14T23:44:00.462Z,1.80
2019-01-14T23:49:46.954Z,2.87
2019-01-14T23:52:48.024Z,1.73
2019-01-14T23:58:34.654Z,2.00
